sensor_id;sensor_type;location;lat;lon;timestamp;P1;durP1;ratioP1;P2;durP2;ratioP2
76795;SDS011;65745;50.278;18.192;2023-04-12T00:01:35;6.00;;;3.90;;
76795;SDS011;65745;50.278;18.192;2023-04-12T00:04:08;6.30;;;4.10;;
76795;SDS011;65745;50.278;18.192;2023-04-12T00:06:42;7.40;;;4.70;;
76795;SDS011;65745;50.278;18.192;2023-04-12T00:09:16;6.30;;;4.30;;
76795;SDS011;65745;50.278;18.192;2023-04-12T00:11:49;6.70;;;4.80;;
76795;SDS011;65745;50.278;18.192;2023-04-12T00:14:22;6.90;;;4.90;;
76795;SDS011;65745;50.278;18.192;2023-04-12T00:16:54;7.00;;;4.70;;
76795;SDS011;65745;50.278;18.192;2023-04-12T00:19:26;7.40;;;5.10;;
76795;SDS011;65745;50.278;18.192;2023-04-12T00:21:59;9.80;;;5.10;;
76795;SDS011;65745;50.278;18.192;2023-04-12T00:24:31;8.30;;;4.70;;
76795;SDS011;65745;50.278;18.192;2023-04-12T00:27:04;5.80;;;4.80;;
76795;SDS011;65745;50.278;18.192;2023-04-12T00:29:37;6.80;;;4.50;;
76795;SDS011;65745;50.278;18.192;2023-04-12T00:32:10;9.00;;;6.00;;
76795;SDS011;65745;50.278;18.192;2023-04-12T00:34:42;8.50;;;4.80;;
76795;SDS011;65745;50.278;18.192;2023-04-12T00:37:15;8.10;;;5.40;;
76795;SDS011;65745;50.278;18.192;2023-04-12T00:39:47;9.30;;;5.10;;
76795;SDS011;65745;50.278;18.192;2023-04-12T00:42:19;7.70;;;5.10;;
76795;SDS011;65745;50.278;18.192;2023-04-12T00:44:51;8.60;;;6.60;;
76795;SDS011;65745;50.278;18.192;2023-04-12T00:47:24;8.60;;;6.10;;
76795;SDS011;65745;50.278;18.192;2023-04-12T00:49:57;11.40;;;6.80;;
76795;SDS011;65745;50.278;18.192;2023-04-12T00:52:31;12.10;;;6.40;;
76795;SDS011;65745;50.278;18.192;2023-04-12T00:55:04;8.60;;;5.90;;
76795;SDS011;65745;50.278;18.192;2023-04-12T00:57:38;11.30;;;6.60;;
76795;SDS011;65745;50.278;18.192;2023-04-12T01:00:11;9.90;;;6.80;;
76795;SDS011;65745;50.278;18.192;2023-04-12T01:02:46;8.90;;;6.00;;
76795;SDS011;65745;50.278;18.192;2023-04-12T01:05:20;10.60;;;6.30;;
76795;SDS011;65745;50.278;18.192;2023-04-12T01:08:00;9.30;;;5.40;;
76795;SDS011;65745;50.278;18.192;2023-04-12T01:10:42;8.10;;;5.60;;
76795;SDS011;65745;50.278;18.192;2023-04-12T01:13:27;7.10;;;4.90;;
76795;SDS011;65745;50.278;18.192;2023-04-12T01:16:05;7.80;;;5.20;;
76795;SDS011;65745;50.278;18.192;2023-04-12T01:18:42;8.50;;;5.50;;
76795;SDS011;65745;50.278;18.192;2023-04-12T01:21:22;9.70;;;5.70;;
76795;SDS011;65745;50.278;18.192;2023-04-12T01:24:13;10.80;;;5.30;;
76795;SDS011;65745;50.278;18.192;2023-04-12T01:26:53;7.00;;;4.90;;
76795;SDS011;65745;50.278;18.192;2023-04-12T01:29:28;7.60;;;5.40;;
76795;SDS011;65745;50.278;18.192;2023-04-12T01:32:01;10.90;;;6.00;;
76795;SDS011;65745;50.278;18.192;2023-04-12T01:34:34;7.50;;;5.20;;
76795;SDS011;65745;50.278;18.192;2023-04-12T01:37:09;8.30;;;5.80;;
76795;SDS011;65745;50.278;18.192;2023-04-12T01:39:42;9.60;;;5.10;;
76795;SDS011;65745;50.278;18.192;2023-04-12T01:42:18;7.70;;;5.30;;
76795;SDS011;65745;50.278;18.192;2023-04-12T01:44:51;9.00;;;5.00;;
76795;SDS011;65745;50.278;18.192;2023-04-12T01:47:23;6.80;;;5.00;;
76795;SDS011;65745;50.278;18.192;2023-04-12T01:49:58;7.50;;;5.40;;
76795;SDS011;65745;50.278;18.192;2023-04-12T01:52:42;7.90;;;4.90;;
76795;SDS011;65745;50.278;18.192;2023-04-12T01:55:22;8.10;;;6.10;;
76795;SDS011;65745;50.278;18.192;2023-04-12T01:57:56;6.90;;;5.90;;
76795;SDS011;65745;50.278;18.192;2023-04-12T02:00:32;8.70;;;6.40;;
76795;SDS011;65745;50.278;18.192;2023-04-12T02:03:06;9.40;;;6.80;;
76795;SDS011;65745;50.278;18.192;2023-04-12T02:05:40;8.20;;;7.40;;
76795;SDS011;65745;50.278;18.192;2023-04-12T02:08:13;8.30;;;5.80;;
76795;SDS011;65745;50.278;18.192;2023-04-12T02:10:47;10.40;;;6.50;;
76795;SDS011;65745;50.278;18.192;2023-04-12T02:13:19;7.80;;;7.00;;
76795;SDS011;65745;50.278;18.192;2023-04-12T02:15:51;10.70;;;7.70;;
76795;SDS011;65745;50.278;18.192;2023-04-12T02:18:23;10.30;;;8.00;;
76795;SDS011;65745;50.278;18.192;2023-04-12T02:20:56;13.00;;;7.60;;
76795;SDS011;65745;50.278;18.192;2023-04-12T02:23:29;11.40;;;7.50;;
76795;SDS011;65745;50.278;18.192;2023-04-12T02:26:01;8.60;;;6.80;;
76795;SDS011;65745;50.278;18.192;2023-04-12T02:28:34;8.60;;;6.40;;
76795;SDS011;65745;50.278;18.192;2023-04-12T02:31:08;9.50;;;7.00;;
76795;SDS011;65745;50.278;18.192;2023-04-12T02:33:41;12.00;;;6.80;;
76795;SDS011;65745;50.278;18.192;2023-04-12T02:36:14;10.30;;;6.30;;
76795;SDS011;65745;50.278;18.192;2023-04-12T02:38:47;8.40;;;5.40;;
76795;SDS011;65745;50.278;18.192;2023-04-12T02:41:22;9.40;;;5.70;;
76795;SDS011;65745;50.278;18.192;2023-04-12T02:43:55;7.70;;;5.50;;
76795;SDS011;65745;50.278;18.192;2023-04-12T02:46:28;8.80;;;5.90;;
76795;SDS011;65745;50.278;18.192;2023-04-12T02:49:00;7.20;;;5.50;;
76795;SDS011;65745;50.278;18.192;2023-04-12T02:51:37;7.80;;;5.80;;
76795;SDS011;65745;50.278;18.192;2023-04-12T02:54:10;8.40;;;5.60;;
76795;SDS011;65745;50.278;18.192;2023-04-12T02:56:55;8.90;;;6.50;;
76795;SDS011;65745;50.278;18.192;2023-04-12T02:59:49;10.90;;;6.20;;
76795;SDS011;65745;50.278;18.192;2023-04-12T03:02:25;7.90;;;6.60;;
76795;SDS011;65745;50.278;18.192;2023-04-12T03:07:40;65.70;;;31.10;;
76795;SDS011;65745;50.278;18.192;2023-04-12T03:10:13;86.40;;;40.70;;
76795;SDS011;65745;50.278;18.192;2023-04-12T03:12:50;73.20;;;35.90;;
76795;SDS011;65745;50.278;18.192;2023-04-12T03:15:22;59.50;;;31.30;;
76795;SDS011;65745;50.278;18.192;2023-04-12T03:17:57;40.70;;;22.50;;
76795;SDS011;65745;50.278;18.192;2023-04-12T03:20:32;24.60;;;14.60;;
76795;SDS011;65745;50.278;18.192;2023-04-12T03:23:07;20.20;;;13.10;;
76795;SDS011;65745;50.278;18.192;2023-04-12T03:25:44;16.40;;;11.20;;
76795;SDS011;65745;50.278;18.192;2023-04-12T03:28:28;14.60;;;11.70;;
76795;SDS011;65745;50.278;18.192;2023-04-12T03:31:03;13.90;;;9.20;;
76795;SDS011;65745;50.278;18.192;2023-04-12T03:33:46;12.70;;;8.00;;
76795;SDS011;65745;50.278;18.192;2023-04-12T03:36:29;11.90;;;7.70;;
76795;SDS011;65745;50.278;18.192;2023-04-12T03:39:10;12.40;;;7.10;;
76795;SDS011;65745;50.278;18.192;2023-04-12T03:41:43;8.60;;;6.90;;
76795;SDS011;65745;50.278;18.192;2023-04-12T03:44:16;12.10;;;6.30;;
76795;SDS011;65745;50.278;18.192;2023-04-12T03:46:50;15.40;;;7.90;;
76795;SDS011;65745;50.278;18.192;2023-04-12T03:49:23;11.30;;;6.70;;
76795;SDS011;65745;50.278;18.192;2023-04-12T03:51:57;13.00;;;7.60;;
76795;SDS011;65745;50.278;18.192;2023-04-12T03:54:30;11.50;;;8.10;;
76795;SDS011;65745;50.278;18.192;2023-04-12T03:57:06;12.70;;;8.70;;
76795;SDS011;65745;50.278;18.192;2023-04-12T03:59:44;11.30;;;8.40;;
76795;SDS011;65745;50.278;18.192;2023-04-12T04:02:17;12.70;;;7.20;;
76795;SDS011;65745;50.278;18.192;2023-04-12T04:04:51;9.90;;;6.90;;
76795;SDS011;65745;50.278;18.192;2023-04-12T04:07:28;9.20;;;6.80;;
76795;SDS011;65745;50.278;18.192;2023-04-12T04:10:01;8.60;;;5.30;;
76795;SDS011;65745;50.278;18.192;2023-04-12T04:12:36;7.60;;;5.60;;
76795;SDS011;65745;50.278;18.192;2023-04-12T04:15:12;7.60;;;6.00;;
76795;SDS011;65745;50.278;18.192;2023-04-12T04:17:45;10.30;;;6.90;;
76795;SDS011;65745;50.278;18.192;2023-04-12T04:20:19;15.30;;;8.70;;
76795;SDS011;65745;50.278;18.192;2023-04-12T04:22:54;10.70;;;7.30;;
76795;SDS011;65745;50.278;18.192;2023-04-12T04:25:26;10.10;;;6.80;;
76795;SDS011;65745;50.278;18.192;2023-04-12T04:28:02;12.10;;;7.70;;
76795;SDS011;65745;50.278;18.192;2023-04-12T04:30:36;13.30;;;7.60;;
76795;SDS011;65745;50.278;18.192;2023-04-12T04:33:10;17.10;;;8.10;;
76795;SDS011;65745;50.278;18.192;2023-04-12T04:35:45;10.30;;;7.20;;
76795;SDS011;65745;50.278;18.192;2023-04-12T04:38:24;12.20;;;8.20;;
76795;SDS011;65745;50.278;18.192;2023-04-12T04:41:04;11.40;;;6.80;;
76795;SDS011;65745;50.278;18.192;2023-04-12T04:43:48;11.60;;;9.20;;
76795;SDS011;65745;50.278;18.192;2023-04-12T04:46:22;14.50;;;8.70;;
76795;SDS011;65745;50.278;18.192;2023-04-12T04:48:58;13.70;;;9.10;;
76795;SDS011;65745;50.278;18.192;2023-04-12T04:51:31;18.60;;;9.70;;
76795;SDS011;65745;50.278;18.192;2023-04-12T04:54:05;17.20;;;9.50;;
76795;SDS011;65745;50.278;18.192;2023-04-12T04:56:40;14.90;;;9.10;;
76795;SDS011;65745;50.278;18.192;2023-04-12T04:59:14;25.40;;;15.80;;
76795;SDS011;65745;50.278;18.192;2023-04-12T05:01:48;28.90;;;16.80;;
76795;SDS011;65745;50.278;18.192;2023-04-12T05:04:20;27.30;;;16.10;;
76795;SDS011;65745;50.278;18.192;2023-04-12T05:06:55;28.70;;;16.20;;
76795;SDS011;65745;50.278;18.192;2023-04-12T05:09:27;27.60;;;17.50;;
76795;SDS011;65745;50.278;18.192;2023-04-12T05:12:00;31.00;;;17.90;;
76795;SDS011;65745;50.278;18.192;2023-04-12T05:14:33;23.10;;;12.70;;
76795;SDS011;65745;50.278;18.192;2023-04-12T05:17:19;17.50;;;11.20;;
76795;SDS011;65745;50.278;18.192;2023-04-12T05:19:51;18.20;;;9.90;;
76795;SDS011;65745;50.278;18.192;2023-04-12T05:22:24;18.50;;;11.30;;
76795;SDS011;65745;50.278;18.192;2023-04-12T05:24:58;21.60;;;12.20;;
76795;SDS011;65745;50.278;18.192;2023-04-12T05:27:33;23.50;;;12.70;;
76795;SDS011;65745;50.278;18.192;2023-04-12T05:30:07;22.60;;;12.80;;
76795;SDS011;65745;50.278;18.192;2023-04-12T05:32:40;18.40;;;10.70;;
76795;SDS011;65745;50.278;18.192;2023-04-12T05:35:13;17.40;;;11.80;;
76795;SDS011;65745;50.278;18.192;2023-04-12T05:37:46;24.90;;;14.40;;
76795;SDS011;65745;50.278;18.192;2023-04-12T05:40:19;27.40;;;15.20;;
76795;SDS011;65745;50.278;18.192;2023-04-12T05:42:52;26.40;;;14.60;;
76795;SDS011;65745;50.278;18.192;2023-04-12T05:45:25;27.70;;;14.80;;
76795;SDS011;65745;50.278;18.192;2023-04-12T05:48:00;26.00;;;14.80;;
76795;SDS011;65745;50.278;18.192;2023-04-12T05:50:32;41.80;;;24.30;;
76795;SDS011;65745;50.278;18.192;2023-04-12T05:53:05;34.90;;;19.60;;
76795;SDS011;65745;50.278;18.192;2023-04-12T05:55:38;40.50;;;23.20;;
76795;SDS011;65745;50.278;18.192;2023-04-12T05:58:11;31.60;;;20.00;;
76795;SDS011;65745;50.278;18.192;2023-04-12T06:00:45;25.50;;;14.80;;
76795;SDS011;65745;50.278;18.192;2023-04-12T06:03:20;20.40;;;11.70;;
76795;SDS011;65745;50.278;18.192;2023-04-12T06:05:56;25.10;;;13.40;;
76795;SDS011;65745;50.278;18.192;2023-04-12T06:08:30;21.30;;;16.00;;
76795;SDS011;65745;50.278;18.192;2023-04-12T06:11:05;28.00;;;18.90;;
76795;SDS011;65745;50.278;18.192;2023-04-12T06:13:41;30.50;;;17.60;;
76795;SDS011;65745;50.278;18.192;2023-04-12T06:16:13;20.50;;;14.40;;
76795;SDS011;65745;50.278;18.192;2023-04-12T06:18:46;20.60;;;13.80;;
76795;SDS011;65745;50.278;18.192;2023-04-12T06:21:18;18.20;;;12.70;;
76795;SDS011;65745;50.278;18.192;2023-04-12T06:23:52;21.10;;;13.60;;
76795;SDS011;65745;50.278;18.192;2023-04-12T06:26:25;18.20;;;11.00;;
76795;SDS011;65745;50.278;18.192;2023-04-12T06:29:08;15.10;;;10.10;;
76795;SDS011;65745;50.278;18.192;2023-04-12T06:31:41;11.60;;;9.10;;
76795;SDS011;65745;50.278;18.192;2023-04-12T06:34:13;11.70;;;7.90;;
76795;SDS011;65745;50.278;18.192;2023-04-12T06:36:46;9.00;;;7.70;;
76795;SDS011;65745;50.278;18.192;2023-04-12T06:39:18;10.30;;;7.80;;
76795;SDS011;65745;50.278;18.192;2023-04-12T06:41:50;10.80;;;8.40;;
76795;SDS011;65745;50.278;18.192;2023-04-12T06:44:24;10.40;;;7.80;;
76795;SDS011;65745;50.278;18.192;2023-04-12T06:46:56;10.70;;;6.60;;
76795;SDS011;65745;50.278;18.192;2023-04-12T06:49:29;12.30;;;8.30;;
76795;SDS011;65745;50.278;18.192;2023-04-12T06:52:04;11.00;;;7.50;;
76795;SDS011;65745;50.278;18.192;2023-04-12T06:54:37;11.90;;;7.60;;
76795;SDS011;65745;50.278;18.192;2023-04-12T06:57:11;8.60;;;6.10;;
76795;SDS011;65745;50.278;18.192;2023-04-12T06:59:43;9.70;;;7.30;;
76795;SDS011;65745;50.278;18.192;2023-04-12T07:02:15;12.70;;;7.30;;
76795;SDS011;65745;50.278;18.192;2023-04-12T07:04:48;9.00;;;6.90;;
76795;SDS011;65745;50.278;18.192;2023-04-12T07:07:23;12.30;;;7.20;;
76795;SDS011;65745;50.278;18.192;2023-04-12T07:09:55;10.40;;;7.20;;
76795;SDS011;65745;50.278;18.192;2023-04-12T07:12:28;10.70;;;7.30;;
76795;SDS011;65745;50.278;18.192;2023-04-12T07:15:00;10.30;;;6.90;;
76795;SDS011;65745;50.278;18.192;2023-04-12T07:17:33;9.00;;;6.00;;
76795;SDS011;65745;50.278;18.192;2023-04-12T07:20:06;6.40;;;5.10;;
76795;SDS011;65745;50.278;18.192;2023-04-12T07:22:40;9.80;;;6.20;;
76795;SDS011;65745;50.278;18.192;2023-04-12T07:25:13;6.40;;;5.20;;
76795;SDS011;65745;50.278;18.192;2023-04-12T07:27:45;9.20;;;5.70;;
76795;SDS011;65745;50.278;18.192;2023-04-12T07:30:20;5.70;;;4.60;;
76795;SDS011;65745;50.278;18.192;2023-04-12T07:32:53;6.00;;;4.60;;
76795;SDS011;65745;50.278;18.192;2023-04-12T07:35:40;9.00;;;5.40;;
76795;SDS011;65745;50.278;18.192;2023-04-12T07:38:13;8.40;;;5.30;;
76795;SDS011;65745;50.278;18.192;2023-04-12T07:40:45;8.80;;;5.20;;
76795;SDS011;65745;50.278;18.192;2023-04-12T07:43:18;7.50;;;4.80;;
76795;SDS011;65745;50.278;18.192;2023-04-12T07:45:51;8.70;;;5.60;;
76795;SDS011;65745;50.278;18.192;2023-04-12T07:48:25;4.50;;;3.70;;
76795;SDS011;65745;50.278;18.192;2023-04-12T07:50:57;8.50;;;5.00;;
76795;SDS011;65745;50.278;18.192;2023-04-12T07:53:31;6.90;;;4.30;;
76795;SDS011;65745;50.278;18.192;2023-04-12T07:56:03;5.20;;;3.80;;
76795;SDS011;65745;50.278;18.192;2023-04-12T07:58:37;6.40;;;4.60;;
76795;SDS011;65745;50.278;18.192;2023-04-12T08:01:10;6.90;;;4.80;;
76795;SDS011;65745;50.278;18.192;2023-04-12T08:03:45;6.80;;;4.10;;
76795;SDS011;65745;50.278;18.192;2023-04-12T08:06:18;6.90;;;4.40;;
76795;SDS011;65745;50.278;18.192;2023-04-12T08:08:50;7.10;;;5.00;;
76795;SDS011;65745;50.278;18.192;2023-04-12T08:11:22;6.40;;;4.60;;
76795;SDS011;65745;50.278;18.192;2023-04-12T08:13:55;5.60;;;4.70;;
76795;SDS011;65745;50.278;18.192;2023-04-12T08:16:27;6.30;;;4.70;;
76795;SDS011;65745;50.278;18.192;2023-04-12T08:19:00;5.70;;;4.30;;
76795;SDS011;65745;50.278;18.192;2023-04-12T08:21:33;7.30;;;5.00;;
76795;SDS011;65745;50.278;18.192;2023-04-12T08:24:05;6.60;;;4.10;;
76795;SDS011;65745;50.278;18.192;2023-04-12T08:26:38;6.60;;;4.20;;
76795;SDS011;65745;50.278;18.192;2023-04-12T08:29:11;6.40;;;4.60;;
76795;SDS011;65745;50.278;18.192;2023-04-12T08:31:43;5.20;;;3.90;;
76795;SDS011;65745;50.278;18.192;2023-04-12T08:34:16;6.90;;;4.20;;
76795;SDS011;65745;50.278;18.192;2023-04-12T08:36:50;6.10;;;4.50;;
76795;SDS011;65745;50.278;18.192;2023-04-12T08:39:23;6.10;;;3.90;;
76795;SDS011;65745;50.278;18.192;2023-04-12T08:41:55;5.60;;;4.20;;
76795;SDS011;65745;50.278;18.192;2023-04-12T08:44:32;5.90;;;4.00;;
76795;SDS011;65745;50.278;18.192;2023-04-12T08:47:07;7.50;;;4.60;;
76795;SDS011;65745;50.278;18.192;2023-04-12T08:49:40;11.70;;;7.00;;
76795;SDS011;65745;50.278;18.192;2023-04-12T08:52:13;25.40;;;12.10;;
76795;SDS011;65745;50.278;18.192;2023-04-12T08:54:46;7.80;;;6.00;;
76795;SDS011;65745;50.278;18.192;2023-04-12T08:57:19;6.70;;;4.80;;
76795;SDS011;65745;50.278;18.192;2023-04-12T08:59:51;5.40;;;3.80;;
76795;SDS011;65745;50.278;18.192;2023-04-12T09:02:25;4.40;;;3.10;;
76795;SDS011;65745;50.278;18.192;2023-04-12T09:04:58;5.20;;;3.50;;
76795;SDS011;65745;50.278;18.192;2023-04-12T09:07:31;6.50;;;4.00;;
76795;SDS011;65745;50.278;18.192;2023-04-12T09:10:06;5.10;;;4.20;;
76795;SDS011;65745;50.278;18.192;2023-04-12T09:12:45;4.60;;;3.90;;
76795;SDS011;65745;50.278;18.192;2023-04-12T09:15:21;6.00;;;4.30;;
76795;SDS011;65745;50.278;18.192;2023-04-12T09:18:03;4.30;;;3.80;;
76795;SDS011;65745;50.278;18.192;2023-04-12T09:20:37;6.00;;;4.40;;
76795;SDS011;65745;50.278;18.192;2023-04-12T09:23:19;5.50;;;4.10;;
76795;SDS011;65745;50.278;18.192;2023-04-12T09:25:53;5.80;;;4.10;;
76795;SDS011;65745;50.278;18.192;2023-04-12T09:28:26;7.50;;;4.60;;
76795;SDS011;65745;50.278;18.192;2023-04-12T09:31:00;6.80;;;3.70;;
76795;SDS011;65745;50.278;18.192;2023-04-12T09:33:33;6.30;;;4.50;;
76795;SDS011;65745;50.278;18.192;2023-04-12T09:36:08;4.00;;;3.40;;
76795;SDS011;65745;50.278;18.192;2023-04-12T09:38:56;4.30;;;3.60;;
76795;SDS011;65745;50.278;18.192;2023-04-12T09:41:30;3.40;;;3.10;;
76795;SDS011;65745;50.278;18.192;2023-04-12T09:44:03;4.00;;;3.20;;
76795;SDS011;65745;50.278;18.192;2023-04-12T09:46:35;3.30;;;3.00;;
76795;SDS011;65745;50.278;18.192;2023-04-12T09:49:22;3.70;;;3.30;;
76795;SDS011;65745;50.278;18.192;2023-04-12T09:54:42;5.20;;;3.70;;
76795;SDS011;65745;50.278;18.192;2023-04-12T09:57:30;3.20;;;2.90;;
76795;SDS011;65745;50.278;18.192;2023-04-12T10:00:04;3.90;;;3.10;;
76795;SDS011;65745;50.278;18.192;2023-04-12T10:02:43;5.70;;;3.40;;
76795;SDS011;65745;50.278;18.192;2023-04-12T10:05:20;4.10;;;3.20;;
76795;SDS011;65745;50.278;18.192;2023-04-12T10:07:57;8.20;;;5.60;;
76795;SDS011;65745;50.278;18.192;2023-04-12T10:10:31;5.20;;;3.20;;
76795;SDS011;65745;50.278;18.192;2023-04-12T10:13:04;5.60;;;3.80;;
76795;SDS011;65745;50.278;18.192;2023-04-12T10:15:39;4.00;;;2.80;;
76795;SDS011;65745;50.278;18.192;2023-04-12T10:18:12;4.00;;;2.60;;
76795;SDS011;65745;50.278;18.192;2023-04-12T10:20:48;4.30;;;2.80;;
76795;SDS011;65745;50.278;18.192;2023-04-12T10:23:21;3.60;;;2.80;;
76795;SDS011;65745;50.278;18.192;2023-04-12T10:25:55;3.90;;;3.10;;
76795;SDS011;65745;50.278;18.192;2023-04-12T10:28:29;4.50;;;2.90;;
76795;SDS011;65745;50.278;18.192;2023-04-12T10:31:03;3.40;;;2.20;;
76795;SDS011;65745;50.278;18.192;2023-04-12T10:34:01;2.80;;;2.10;;
76795;SDS011;65745;50.278;18.192;2023-04-12T10:39:37;4.50;;;2.60;;
76795;SDS011;65745;50.278;18.192;2023-04-12T10:42:18;3.10;;;2.80;;
76795;SDS011;65745;50.278;18.192;2023-04-12T10:44:53;3.60;;;2.70;;
76795;SDS011;65745;50.278;18.192;2023-04-12T10:50:30;4.60;;;3.10;;
76795;SDS011;65745;50.278;18.192;2023-04-12T10:53:20;4.90;;;3.20;;
76795;SDS011;65745;50.278;18.192;2023-04-12T10:56:00;4.40;;;4.00;;
76795;SDS011;65745;50.278;18.192;2023-04-12T10:59:07;3.90;;;2.90;;
76795;SDS011;65745;50.278;18.192;2023-04-12T11:02:06;3.70;;;2.80;;
76795;SDS011;65745;50.278;18.192;2023-04-12T11:05:04;4.70;;;3.40;;
76795;SDS011;65745;50.278;18.192;2023-04-12T11:07:57;5.50;;;5.00;;
76795;SDS011;65745;50.278;18.192;2023-04-12T11:10:40;3.50;;;2.70;;
76795;SDS011;65745;50.278;18.192;2023-04-12T11:13:34;4.80;;;2.70;;
76795;SDS011;65745;50.278;18.192;2023-04-12T11:16:09;4.30;;;2.80;;
76795;SDS011;65745;50.278;18.192;2023-04-12T11:18:42;6.00;;;2.70;;
76795;SDS011;65745;50.278;18.192;2023-04-12T11:21:17;4.30;;;3.10;;
76795;SDS011;65745;50.278;18.192;2023-04-12T11:23:50;5.70;;;3.10;;
76795;SDS011;65745;50.278;18.192;2023-04-12T11:26:25;4.10;;;2.90;;
76795;SDS011;65745;50.278;18.192;2023-04-12T11:29:07;4.90;;;3.10;;
76795;SDS011;65745;50.278;18.192;2023-04-12T11:31:45;5.10;;;3.50;;
76795;SDS011;65745;50.278;18.192;2023-04-12T11:34:18;4.60;;;3.20;;
76795;SDS011;65745;50.278;18.192;2023-04-12T11:36:52;5.70;;;3.70;;
76795;SDS011;65745;50.278;18.192;2023-04-12T11:39:25;4.30;;;2.80;;
76795;SDS011;65745;50.278;18.192;2023-04-12T11:44:33;4.50;;;2.90;;
76795;SDS011;65745;50.278;18.192;2023-04-12T11:47:24;4.60;;;3.00;;
76795;SDS011;65745;50.278;18.192;2023-04-12T11:49:57;6.40;;;3.50;;
76795;SDS011;65745;50.278;18.192;2023-04-12T11:52:30;4.60;;;2.80;;
76795;SDS011;65745;50.278;18.192;2023-04-12T11:55:05;3.70;;;2.50;;
76795;SDS011;65745;50.278;18.192;2023-04-12T11:57:39;5.30;;;2.80;;
76795;SDS011;65745;50.278;18.192;2023-04-12T12:00:12;7.00;;;3.60;;
76795;SDS011;65745;50.278;18.192;2023-04-12T12:02:46;4.00;;;3.00;;
76795;SDS011;65745;50.278;18.192;2023-04-12T12:05:37;3.70;;;3.10;;
76795;SDS011;65745;50.278;18.192;2023-04-12T12:10:42;3.50;;;2.70;;
76795;SDS011;65745;50.278;18.192;2023-04-12T12:13:46;4.90;;;3.30;;
76795;SDS011;65745;50.278;18.192;2023-04-12T12:16:24;3.80;;;2.60;;
76795;SDS011;65745;50.278;18.192;2023-04-12T12:19:02;4.80;;;2.90;;
76795;SDS011;65745;50.278;18.192;2023-04-12T12:21:34;4.60;;;3.00;;
76795;SDS011;65745;50.278;18.192;2023-04-12T12:24:07;5.60;;;4.40;;
76795;SDS011;65745;50.278;18.192;2023-04-12T12:26:43;4.40;;;3.30;;
76795;SDS011;65745;50.278;18.192;2023-04-12T12:29:19;5.20;;;3.40;;
76795;SDS011;65745;50.278;18.192;2023-04-12T12:31:53;5.50;;;3.10;;
76795;SDS011;65745;50.278;18.192;2023-04-12T12:34:26;3.60;;;2.50;;
76795;SDS011;65745;50.278;18.192;2023-04-12T12:37:03;4.30;;;3.20;;
76795;SDS011;65745;50.278;18.192;2023-04-12T12:39:45;3.40;;;2.50;;
76795;SDS011;65745;50.278;18.192;2023-04-12T12:42:35;3.60;;;2.70;;
76795;SDS011;65745;50.278;18.192;2023-04-12T12:45:16;4.60;;;2.70;;
76795;SDS011;65745;50.278;18.192;2023-04-12T12:47:51;4.50;;;2.80;;
76795;SDS011;65745;50.278;18.192;2023-04-12T12:50:25;4.10;;;2.30;;
76795;SDS011;65745;50.278;18.192;2023-04-12T12:52:59;4.00;;;2.80;;
76795;SDS011;65745;50.278;18.192;2023-04-12T12:55:34;3.00;;;2.70;;
76795;SDS011;65745;50.278;18.192;2023-04-12T12:58:07;4.10;;;2.90;;
76795;SDS011;65745;50.278;18.192;2023-04-12T13:00:40;3.20;;;2.80;;
76795;SDS011;65745;50.278;18.192;2023-04-12T13:03:12;4.00;;;3.60;;
76795;SDS011;65745;50.278;18.192;2023-04-12T13:05:45;3.20;;;2.80;;
76795;SDS011;65745;50.278;18.192;2023-04-12T13:08:18;4.10;;;2.80;;
76795;SDS011;65745;50.278;18.192;2023-04-12T13:10:51;4.00;;;2.90;;
76795;SDS011;65745;50.278;18.192;2023-04-12T13:13:24;3.30;;;2.70;;
76795;SDS011;65745;50.278;18.192;2023-04-12T13:15:56;5.00;;;3.00;;
76795;SDS011;65745;50.278;18.192;2023-04-12T13:18:29;4.10;;;2.70;;
76795;SDS011;65745;50.278;18.192;2023-04-12T13:21:02;4.20;;;2.80;;
76795;SDS011;65745;50.278;18.192;2023-04-12T13:23:36;3.20;;;2.90;;
76795;SDS011;65745;50.278;18.192;2023-04-12T13:26:09;4.50;;;2.90;;
76795;SDS011;65745;50.278;18.192;2023-04-12T13:28:41;4.00;;;2.80;;
76795;SDS011;65745;50.278;18.192;2023-04-12T13:31:13;4.40;;;2.70;;
76795;SDS011;65745;50.278;18.192;2023-04-12T13:33:46;3.30;;;2.50;;
76795;SDS011;65745;50.278;18.192;2023-04-12T13:36:18;6.50;;;3.90;;
76795;SDS011;65745;50.278;18.192;2023-04-12T13:38:51;5.70;;;3.30;;
76795;SDS011;65745;50.278;18.192;2023-04-12T13:41:24;4.80;;;2.80;;
76795;SDS011;65745;50.278;18.192;2023-04-12T13:43:59;3.80;;;2.70;;
76795;SDS011;65745;50.278;18.192;2023-04-12T13:46:32;4.00;;;2.70;;
76795;SDS011;65745;50.278;18.192;2023-04-12T13:49:05;4.80;;;2.50;;
76795;SDS011;65745;50.278;18.192;2023-04-12T13:51:37;3.10;;;2.60;;
76795;SDS011;65745;50.278;18.192;2023-04-12T13:54:10;3.20;;;2.60;;
76795;SDS011;65745;50.278;18.192;2023-04-12T13:56:43;4.20;;;2.90;;
76795;SDS011;65745;50.278;18.192;2023-04-12T13:59:16;5.40;;;3.20;;
76795;SDS011;65745;50.278;18.192;2023-04-12T14:01:48;3.30;;;2.40;;
76795;SDS011;65745;50.278;18.192;2023-04-12T14:04:21;4.30;;;2.00;;
76795;SDS011;65745;50.278;18.192;2023-04-12T14:09:28;4.80;;;3.30;;
76795;SDS011;65745;50.278;18.192;2023-04-12T14:12:02;4.80;;;2.90;;
76795;SDS011;65745;50.278;18.192;2023-04-12T14:14:34;3.40;;;2.80;;
76795;SDS011;65745;50.278;18.192;2023-04-12T14:17:07;4.30;;;3.20;;
76795;SDS011;65745;50.278;18.192;2023-04-12T14:19:40;3.10;;;2.50;;
76795;SDS011;65745;50.278;18.192;2023-04-12T14:22:12;5.00;;;3.50;;
76795;SDS011;65745;50.278;18.192;2023-04-12T14:24:44;4.40;;;3.50;;
76795;SDS011;65745;50.278;18.192;2023-04-12T14:27:17;4.10;;;2.70;;
76795;SDS011;65745;50.278;18.192;2023-04-12T14:29:49;3.00;;;2.60;;
76795;SDS011;65745;50.278;18.192;2023-04-12T14:32:22;3.50;;;3.20;;
76795;SDS011;65745;50.278;18.192;2023-04-12T14:34:55;5.90;;;3.50;;
76795;SDS011;65745;50.278;18.192;2023-04-12T14:37:28;4.70;;;3.30;;
76795;SDS011;65745;50.278;18.192;2023-04-12T14:40:01;6.40;;;3.20;;
76795;SDS011;65745;50.278;18.192;2023-04-12T14:42:36;4.20;;;3.10;;
76795;SDS011;65745;50.278;18.192;2023-04-12T14:45:10;4.10;;;3.50;;
76795;SDS011;65745;50.278;18.192;2023-04-12T14:47:43;3.40;;;3.10;;
76795;SDS011;65745;50.278;18.192;2023-04-12T14:50:17;4.60;;;2.70;;
76795;SDS011;65745;50.278;18.192;2023-04-12T14:52:50;3.70;;;2.60;;
76795;SDS011;65745;50.278;18.192;2023-04-12T14:55:22;5.00;;;4.00;;
76795;SDS011;65745;50.278;18.192;2023-04-12T14:57:55;4.20;;;3.40;;
76795;SDS011;65745;50.278;18.192;2023-04-12T15:00:28;4.80;;;4.00;;
76795;SDS011;65745;50.278;18.192;2023-04-12T15:03:01;6.70;;;4.90;;
76795;SDS011;65745;50.278;18.192;2023-04-12T15:05:35;5.30;;;3.60;;
76795;SDS011;65745;50.278;18.192;2023-04-12T15:08:08;6.80;;;6.10;;
76795;SDS011;65745;50.278;18.192;2023-04-12T15:10:40;6.20;;;3.50;;
76795;SDS011;65745;50.278;18.192;2023-04-12T15:13:12;8.70;;;7.70;;
76795;SDS011;65745;50.278;18.192;2023-04-12T15:15:45;5.30;;;3.50;;
76795;SDS011;65745;50.278;18.192;2023-04-12T15:18:17;5.80;;;3.30;;
76795;SDS011;65745;50.278;18.192;2023-04-12T15:20:50;5.10;;;3.30;;
76795;SDS011;65745;50.278;18.192;2023-04-12T15:23:22;4.40;;;3.80;;
76795;SDS011;65745;50.278;18.192;2023-04-12T15:25:56;6.20;;;4.80;;
76795;SDS011;65745;50.278;18.192;2023-04-12T15:28:30;14.30;;;10.10;;
76795;SDS011;65745;50.278;18.192;2023-04-12T15:31:03;7.70;;;5.90;;
76795;SDS011;65745;50.278;18.192;2023-04-12T15:33:36;4.20;;;3.40;;